Terminal Aerodrome Forecast
Issued by NWS

Home | Current Version | Previous Version | Text Only | Print | Product List | Glossary On
Versions: 1 2 3 4 5 6 7 8 9 10 11 12 13 14
000
FTUS46 KMTR 271100
TAFMRY
TAF
KMRY 271136Z 2712/2812 11004KT 2SM BR BKN002
      TEMPO 2712/2716 1/4SM FG VV002
     FM271600 VRB03KT P6SM SCT007
     FM271900 29006KT P6SM SCT010
     FM272100 28012KT P6SM SCT015
     FM280200 24005KT P6SM FEW003 BKN008
     FM280500 25004KT 4SM BR BKN003 OVC007=

USA.gov is the U.S. government's official web portal to all federal, state and local government web resources and services.